Annandale On Hudson, New York
Current Conditions -  °F | °C
As of 3:53 PM on Thursday 18 Dec 2014 (Local Time) from KPOU Reporting Station
Overcast Overcast  
Wind Chill: 32°   Ceiling: 3800
Heat Index: 40°   Visibility: 10mi
Dew Point: 26°   Wind: 14mph
Humidity: 58%   Direction: 270°W
Pressure: 29.93"   Gusts: NA
Location:  42.01°N, 73.9°W
Report Text: KPOU 182053Z AUTO 27012KT 10SM OVC038 04/M03 A2993 RMK AO2 SLP134 T00441033 53009 TSNO
Loading
Personal Weather Stations






























Interactive Weather Map New forecast layout! Learn more

10-Day Weather Forecast

Advertisements
Track Severe Weather on mobile